Historique des mesures à Cassis (13260), France
Quotidien Résumé Janvier 13, 2018 Unités:  US    Métrique   Métrique/US
« Précédent (Jour)
Suivant (Jour) »
Quotidien Hebdomadaire Mensuel Annuel Période au choix
  Maximum: Minimum: Moyenne:
Température: 57 °F 44.6 °F 50.7 °F
Point de rosée: 48.7 °F 36.1 °F 41.2 °F
Humidité: 74 % 67 % 70 %
Vitesse du vent: 3.1 mph 0 mph 0.4 mph
Rafales: 4.5 mph - -
Vent:- - SSW
Pression: 30.1 in 30 in -
Précipitations: 0 in    
Historical Graphs
 
 
Mesures pour : Janvier 13, 2018
Heure Temperature Point de rosée Pression Vent Vitesse du vent Rafales Humidité Pluie (par heure) Conditions
00:12 47.5 °F 37.4 °F 30.1 in Calm     68 % 0 in open2300-1.11 W/m2
01:12 46.4 °F 36.9 °F 30 in Calm   0.9 mph 69 % 0 in open2300-1.11 W/m2
02:12 46 °F 36.5 °F 30 in NW 1.3 mph 2 mph 69 % 0 in open2300-1.11 W/m2
03:12 46.2 °F 36.7 °F 30 in Calm     69 % 0 in open2300-1.11 W/m2
05:12 46.2 °F 36.1 °F 30 in Calm     68 % 0 in open2300-1.11 W/m2
07:12 44.6 °F 36.1 °F 30 in Calm     72 % 0 in open2300-1.11 W/m2
08:12 45.1 °F 36.3 °F 30 in Calm     71 % 0 in open2300-1.11 W/m2
09:12 47.1 °F 37.9 °F 30.1 in Calm     70 % 0 in open2300-1.11 W/m2
11:12 52.3 °F 44.2 °F 30.1 in Calm   4.5 mph 74 % 0 in open2300-1.11 W/m2
12:12 54.1 °F 45.3 °F 30.1 in Calm   3.6 mph 72 % 0 in open2300-1.11 W/m2
13:12 57 °F 48.7 °F 30.1 in Calm     74 % 0 in open2300-1.11 W/m2
14:12 56.8 °F 47.1 °F 30 in SSW 2.7 mph 2.9 mph 70 % 0 in open2300-1.11 W/m2
15:12 57 °F 46.9 °F 30 in Calm     69 % 0 in open2300-1.11 W/m2
16:12 55.4 °F 44.6 °F 30 in Calm     67 % 0 in open2300-1.11 W/m2
17:12 53.4 °F 43.5 °F 30 in Calm     69 % 0 in open2300-1.11 W/m2
19:12 52.2 °F 42.8 °F 30 in Calm   1.1 mph 70 % 0 in open2300-1.11 W/m2
20:12 51.6 °F 42.3 °F 30 in Calm     70 % 0 in open2300-1.11 W/m2
21:12 51.4 °F 42.1 °F 30 in Calm     70 % 0 in open2300-1.11 W/m2
22:12 51.4 °F 41.7 °F 30 in Calm     69 % 0 in open2300-1.11 W/m2
23:12 51.6 °F 41.4 °F 30 in ESE 3.1 mph 3.1 mph 68 % 0 in open2300-1.11 W/m2
Observations météo à CASSIS
WU-History script by Weather Underground - 1 mb